Time,TemperatureF,DewpointF,PressureIn,WindDirection,WindDirectionDegrees,WindSpeedMPH,WindSpeedGustMPH,Humidity,HourlyPrecipIn,Conditions,Clouds,dailyrainin,SolarRadiationWatts/m^2,SoftwareType,DateUTC
2013-04-07 00:13:00,53.4,49.0,29.52,South,190,5.0,12.0,86,0.02,,,0.02,0,weatherlink.com 1.10,2013-04-07 05:13:00,
2013-04-07 00:28:00,52.7,50.0,29.52,South,170,2.0,11.0,89,0.03,,,0.03,0,weatherlink.com 1.10,2013-04-07 05:28:00,
2013-04-07 00:43:00,52.7,50.0,29.54,SSW,212,7.0,7.0,89,0.03,,,0.03,0,weatherlink.com 1.10,2013-04-07 05:43:00,
2013-04-07 03:03:00,48.7,42.0,29.59,WNW,302,4.0,14.0,78,0.00,,,0.03,0,weatherlink.com 1.10,2013-04-07 08:03:00,
2013-04-07 03:45:00,44.9,39.0,29.62,WNW,292,5.0,12.0,80,0.00,,,0.03,0,weatherlink.com 1.10,2013-04-07 08:45:00,
2013-04-07 04:00:00,44.4,38.0,29.63,WNW,290,8.0,18.0,79,0.00,,,0.03,0,weatherlink.com 1.10,2013-04-07 09:00:00,
2013-04-07 04:15:00,44.5,39.0,29.64,West,272,4.0,14.0,80,0.00,,,0.03,0,weatherlink.com 1.10,2013-04-07 09:15:00,
2013-04-07 04:30:00,44.1,38.0,29.65,WNW,298,5.0,17.0,79,0.00,,,0.03,0,weatherlink.com 1.10,2013-04-07 09:30:00,
2013-04-07 04:45:00,43.8,38.0,29.66,West,281,5.0,10.0,80,0.00,,,0.03,0,weatherlink.com 1.10,2013-04-07 09:45:00,
2013-04-07 05:00:00,43.2,37.0,29.68,NW,321,8.0,14.0,79,0.00,,,0.03,0,weatherlink.com 1.10,2013-04-07 10:00:00,
2013-04-07 05:15:00,42.9,36.0,29.69,WNW,282,5.0,13.0,78,0.00,,,0.03,0,weatherlink.com 1.10,2013-04-07 10:15:00,
2013-04-07 05:30:00,42.7,36.0,29.70,WNW,284,6.0,9.0,78,0.00,,,0.03,0,weatherlink.com 1.10,2013-04-07 10:30:00,
2013-04-07 05:45:00,42.4,36.0,29.71,WNW,292,5.0,12.0,78,0.00,,,0.03,0,weatherlink.com 1.10,2013-04-07 10:45:00,
2013-04-07 06:00:00,42.1,36.0,29.72,WNW,284,9.0,9.0,78,0.00,,,0.03,0,weatherlink.com 1.10,2013-04-07 11:00:00,
2013-04-07 06:15:00,41.7,35.0,29.73,West,274,4.0,10.0,78,0.00,,,0.03,0,weatherlink.com 1.10,2013-04-07 11:15:00,
2013-04-07 06:30:00,41.5,35.0,29.75,NW,313,3.0,8.0,78,0.00,,,0.03,0,weatherlink.com 1.10,2013-04-07 11:30:00,
2013-04-07 06:46:00,41.4,35.0,29.76,WSW,255,4.0,12.0,79,0.00,,,0.03,9,weatherlink.com 1.10,2013-04-07 11:46:00,
2013-04-07 07:01:00,41.3,35.0,29.78,WNW,291,4.0,7.0,79,0.00,,,0.03,18,weatherlink.com 1.10,2013-04-07 12:01:00,
2013-04-07 07:16:00,40.7,34.0,29.80,NW,312,5.0,13.0,77,0.00,,,0.03,32,weatherlink.com 1.10,2013-04-07 12:16:00,
2013-04-07 07:31:00,40.4,34.0,29.81,WNW,300,5.0,11.0,77,0.00,,,0.03,54,weatherlink.com 1.10,2013-04-07 12:31:00,
2013-04-07 07:46:00,40.4,34.0,29.83,WNW,297,4.0,12.0,78,0.00,,,0.03,58,weatherlink.com 1.10,2013-04-07 12:46:00,
2013-04-07 08:01:00,40.3,34.0,29.84,North,5,2.0,11.0,77,0.00,,,0.03,62,weatherlink.com 1.10,2013-04-07 13:01:00,
2013-04-07 08:16:00,40.4,34.0,29.84,North,349,3.0,12.0,77,0.00,,,0.03,105,weatherlink.com 1.10,2013-04-07 13:16:00,
2013-04-07 08:31:00,40.6,34.0,29.85,WNW,302,2.0,12.0,76,0.00,,,0.03,107,weatherlink.com 1.10,2013-04-07 13:31:00,
2013-04-07 08:46:00,40.6,34.0,29.86,West,279,7.0,8.0,76,0.00,,,0.03,95,weatherlink.com 1.10,2013-04-07 13:46:00,
2013-04-07 09:01:00,40.5,34.0,29.86,NW,309,5.0,9.0,77,0.00,,,0.03,127,weatherlink.com 1.10,2013-04-07 14:01:00,
2013-04-07 09:16:00,40.4,34.0,29.87,WNW,292,4.0,10.0,77,0.00,,,0.03,132,weatherlink.com 1.10,2013-04-07 14:16:00,
2013-04-07 09:31:00,40.9,34.0,29.88,West,280,2.0,8.0,77,0.00,,,0.03,193,weatherlink.com 1.10,2013-04-07 14:31:00,
2013-04-07 09:46:00,41.2,34.0,29.88,NNE,22,4.0,9.0,76,0.00,,,0.03,237,weatherlink.com 1.10,2013-04-07 14:46:00,
2013-04-07 10:01:00,41.0,34.0,29.88,NW,313,4.0,12.0,75,0.00,,,0.03,186,weatherlink.com 1.10,2013-04-07 15:01:00,
2013-04-07 10:19:00,41.4,34.0,29.89,WNW,299,5.0,11.0,74,0.00,,,0.03,341,weatherlink.com 1.10,2013-04-07 15:19:00,
2013-04-07 10:31:00,42.4,34.0,29.89,NNW,345,2.0,8.0,73,0.00,,,0.03,306,weatherlink.com 1.10,2013-04-07 15:31:00,
2013-04-07 10:46:00,43.0,35.0,29.91,NNW,333,3.0,8.0,72,0.00,,,0.03,533,weatherlink.com 1.10,2013-04-07 15:46:00,
2013-04-07 11:01:00,43.6,35.0,29.91,WNW,298,3.0,10.0,71,0.00,,,0.03,376,weatherlink.com 1.10,2013-04-07 16:01:00,
2013-04-07 11:16:00,44.5,35.0,29.92,NW,312,3.0,10.0,69,0.00,,,0.03,441,weatherlink.com 1.10,2013-04-07 16:16:00,
2013-04-07 11:31:00,45.8,35.0,29.92,NW,312,3.0,10.0,67,0.00,,,0.03,461,weatherlink.com 1.10,2013-04-07 16:31:00,
2013-04-07 12:01:00,46.7,36.0,29.93,NW,305,2.0,9.0,66,0.00,,,0.03,436,weatherlink.com 1.10,2013-04-07 17:01:00,
2013-04-07 12:17:00,47.9,36.0,29.93,NNE,32,3.0,8.0,64,0.00,,,0.03,926,weatherlink.com 1.10,2013-04-07 17:17:00,
2013-04-07 12:32:00,46.5,35.0,29.93,NW,307,6.0,7.0,65,0.00,,,0.03,367,weatherlink.com 1.10,2013-04-07 17:32:00,
2013-04-07 12:46:00,47.5,36.0,29.93,NW,313,2.0,11.0,64,0.00,,,0.03,935,weatherlink.com 1.10,2013-04-07 17:46:00,
2013-04-07 13:01:00,48.1,36.0,29.93,North,355,4.0,9.0,63,0.00,,,0.03,858,weatherlink.com 1.10,2013-04-07 18:01:00,
2013-04-07 13:17:00,48.3,36.0,29.93,North,351,4.0,8.0,62,0.00,,,0.03,840,weatherlink.com 1.10,2013-04-07 18:17:00,
2013-04-07 13:32:00,49.6,37.0,29.93,WNW,289,6.0,9.0,62,0.00,,,0.03,838,weatherlink.com 1.10,2013-04-07 18:32:00,
2013-04-07 13:47:00,49.7,37.0,29.93,SE,135,1.0,6.0,62,0.00,,,0.03,819,weatherlink.com 1.10,2013-04-07 18:47:00,
2013-04-07 14:02:00,49.8,36.0,29.93,NNW,335,3.0,5.0,59,0.00,,,0.03,793,weatherlink.com 1.10,2013-04-07 19:02:00,
2013-04-07 14:17:00,50.4,36.0,29.93,North,5,2.0,7.0,59,0.00,,,0.03,798,weatherlink.com 1.10,2013-04-07 19:17:00,
2013-04-07 14:32:00,47.9,37.0,29.93,ENE,66,1.0,6.0,67,0.00,,,0.03,751,weatherlink.com 1.10,2013-04-07 19:32:00,
2013-04-07 14:47:00,46.3,37.0,29.94,NNE,23,5.0,6.0,69,0.00,,,0.03,726,weatherlink.com 1.10,2013-04-07 19:47:00,
2013-04-07 15:02:00,45.0,37.0,29.94,NE,53,1.0,6.0,73,0.00,,,0.03,693,weatherlink.com 1.10,2013-04-07 20:02:00,
2013-04-07 15:17:00,44.7,36.0,29.94,North,5,4.0,8.0,71,0.00,,,0.03,659,weatherlink.com 1.10,2013-04-07 20:17:00,
2013-04-07 15:32:00,44.1,36.0,29.94,NNW,337,2.0,7.0,74,0.00,,,0.03,559,weatherlink.com 1.10,2013-04-07 20:32:00,
2013-04-07 15:47:00,43.8,36.0,29.93,NNE,13,1.0,7.0,74,0.00,,,0.03,90,weatherlink.com 1.10,2013-04-07 20:47:00,
2013-04-07 16:02:00,43.2,36.0,29.93,SE,144,2.0,6.0,77,0.00,,,0.03,79,weatherlink.com 1.10,2013-04-07 21:02:00,
2013-04-07 16:17:00,42.9,36.0,29.94,South,186,3.0,4.0,76,0.00,,,0.03,76,weatherlink.com 1.10,2013-04-07 21:17:00,
2013-04-07 16:32:00,43.1,36.0,29.94,ENE,58,1.0,6.0,75,0.00,,,0.03,79,weatherlink.com 1.10,2013-04-07 21:32:00,
2013-04-07 16:47:00,43.4,36.0,29.95,East,86,0.0,5.0,75,0.00,,,0.03,77,weatherlink.com 1.10,2013-04-07 21:47:00,
2013-04-07 17:02:00,42.4,36.0,29.95,ESE,111,1.0,3.0,77,0.00,,,0.03,76,weatherlink.com 1.10,2013-04-07 22:02:00,
2013-04-07 17:32:00,42.3,36.0,29.95,South,183,1.0,3.0,78,0.00,,,0.03,86,weatherlink.com 1.10,2013-04-07 22:32:00,
2013-04-07 17:47:00,41.8,35.0,29.95,SSW,202,2.0,5.0,78,0.00,,,0.03,65,weatherlink.com 1.10,2013-04-07 22:47:00,
2013-04-07 18:02:00,41.3,36.0,29.95,South,173,0.0,3.0,80,0.00,,,0.03,54,weatherlink.com 1.10,2013-04-07 23:02:00,
2013-04-07 18:17:00,40.8,35.0,29.95,South,173,1.0,4.0,80,0.00,,,0.03,40,weatherlink.com 1.10,2013-04-07 23:17:00,
2013-04-07 23:13:00,37.2,35.0,29.95,South,173,0.0,2.0,91,0.00,,,0.03,0,weatherlink.com 1.10,2013-04-08 04:13:00,
2013-04-07 23:17:00,37.2,35.0,29.95,South,174,1.0,2.0,91,0.00,,,0.03,0,weatherlink.com 1.10,2013-04-08 04:17:00,
2013-04-07 23:32:00,37.1,35.0,29.94,South,174,0.0,2.0,92,0.00,,,0.03,0,weatherlink.com 1.10,2013-04-08 04:32:00,
2013-04-07 23:46:00,37.0,35.0,29.94,South,184,0.0,3.0,92,0.00,,,0.03,0,weatherlink.com 1.10,2013-04-08 04:46:00,